createdAt,value
2022-11-14T00:03:06.292Z,26.50
2022-11-14T00:08:15.630Z,24.38
2022-11-14T00:13:18.821Z,22.77
2022-11-14T00:18:20.998Z,23.20
2022-11-14T00:23:22.893Z,27.42
2022-11-14T00:28:24.667Z,22.77
2022-11-14T00:33:26.392Z,23.10
2022-11-14T00:38:28.587Z,21.67
2022-11-14T00:43:30.726Z,21.10
2022-11-14T00:48:32.864Z,23.63
2022-11-14T00:53:34.886Z,22.52
2022-11-14T00:58:36.622Z,22.52
2022-11-14T01:03:38.360Z,23.58
2022-11-14T01:08:40.042Z,25.23
2022-11-14T01:13:41.944Z,28.23
2022-11-14T01:18:43.659Z,22.95
2022-11-14T01:23:45.445Z,24.52
2022-11-14T01:28:47.216Z,23.40
2022-11-14T01:33:53.985Z,22.77
2022-11-14T01:38:55.953Z,24.02
2022-11-14T01:43:57.690Z,22.25
2022-11-14T01:49:15.973Z,25.45
2022-11-14T01:54:30.932Z,26.98
2022-11-14T01:59:37.727Z,23.23
2022-11-14T02:04:43.537Z,22.27
2022-11-14T02:09:47.791Z,18.05
2022-11-14T02:14:52.753Z,19.05
2022-11-14T02:20:05.056Z,22.58
2022-11-14T02:25:09.294Z,21.25
2022-11-14T02:30:14.537Z,20.45
2022-11-14T02:35:16.417Z,22.35
2022-11-14T02:40:18.358Z,18.27
2022-11-14T02:45:20.952Z,25.13
2022-11-14T02:50:22.793Z,19.42
2022-11-14T02:55:24.679Z,18.23
2022-11-14T03:00:26.652Z,20.98
2022-11-14T03:05:28.412Z,15.63
2022-11-14T03:10:30.180Z,21.13
2022-11-14T03:15:31.880Z,22.13
2022-11-14T03:20:34.783Z,21.17
2022-11-14T03:25:36.568Z,21.45
2022-11-14T03:30:38.277Z,17.45
2022-11-14T03:35:43.196Z,22.35
2022-11-14T03:40:45.500Z,19.15
2022-11-14T03:45:48.100Z,19.35
2022-11-14T03:50:49.829Z,18.15
2022-11-14T03:55:52.454Z,18.02
2022-11-14T04:00:56.325Z,18.60
2022-11-14T04:05:58.146Z,23.10
2022-11-14T04:10:59.884Z,19.65
2022-11-14T04:16:01.772Z,19.50
2022-11-14T04:21:03.615Z,16.45
2022-11-14T04:26:05.453Z,16.17
2022-11-14T04:31:07.209Z,19.77
2022-11-14T04:36:09.164Z,17.90
2022-11-14T04:41:10.956Z,14.75
2022-11-14T04:46:12.679Z,16.50
2022-11-14T04:51:14.451Z,16.98
2022-11-14T04:56:16.221Z,14.38
2022-11-14T05:01:18.498Z,15.98
2022-11-14T05:06:20.258Z,18.70
2022-11-14T05:11:26.594Z,20.20
2022-11-14T05:16:30.638Z,21.88
2022-11-14T05:21:32.418Z,19.42
2022-11-14T05:26:34.281Z,17.27
2022-11-14T05:31:36.031Z,18.35
2022-11-14T05:36:37.967Z,19.80
2022-11-14T05:41:39.693Z,18.38
2022-11-14T05:46:41.514Z,15.02
2022-11-14T05:51:43.254Z,18.90
2022-11-14T05:56:45.000Z,17.05
2022-11-14T06:01:46.748Z,18.08
2022-11-14T06:06:48.550Z,18.48
2022-11-14T06:11:50.317Z,17.35
2022-11-14T06:16:52.007Z,19.00
2022-11-14T06:21:53.715Z,14.90
2022-11-14T06:26:55.422Z,25.15
2022-11-14T06:31:57.131Z,20.95
2022-11-14T06:36:58.866Z,17.17
2022-11-14T06:42:00.762Z,16.30
2022-11-14T06:47:02.560Z,15.43
2022-11-14T06:52:04.683Z,15.68
2022-11-14T06:57:06.509Z,19.42
2022-11-14T07:02:15.389Z,18.48
2022-11-14T07:07:19.592Z,19.08
2022-11-14T07:12:21.454Z,21.73
2022-11-14T07:17:27.130Z,19.33
2022-11-14T07:22:31.645Z,18.35
2022-11-14T07:27:33.371Z,20.92
2022-11-14T07:32:35.149Z,19.88
2022-11-14T07:37:36.901Z,16.40
2022-11-14T07:42:38.806Z,15.05
2022-11-14T07:47:40.828Z,17.23
2022-11-14T07:52:42.768Z,16.42
2022-11-14T07:57:48.984Z,21.10
2022-11-14T08:02:51.303Z,17.48
2022-11-14T08:07:53.518Z,19.95
2022-11-14T08:13:30.515Z,19.77
2022-11-14T08:18:26.722Z,20.30
2022-11-14T08:23:28.583Z,22.33
2022-11-14T08:28:30.685Z,17.23
2022-11-14T08:33:32.824Z,15.70
2022-11-14T08:38:34.800Z,18.13
2022-11-14T08:43:36.503Z,15.15
2022-11-14T08:48:38.387Z,14.52
2022-11-14T08:53:40.169Z,18.67
2022-11-14T08:58:42.148Z,14.13
2022-11-14T09:03:44.118Z,15.23
2022-11-14T09:08:46.187Z,14.82
2022-11-14T09:13:48.066Z,15.15
2022-11-14T09:18:49.818Z,13.98
2022-11-14T09:23:51.537Z,16.52
2022-11-14T09:28:53.279Z,16.70
2022-11-14T09:33:55.080Z,14.82
2022-11-14T09:38:56.779Z,14.63
2022-11-14T09:44:09.828Z,21.17
2022-11-14T09:49:37.888Z,19.70
2022-11-14T09:55:12.476Z,15.00
2022-11-14T10:00:20.844Z,16.17
2022-11-14T10:05:45.933Z,15.75
2022-11-14T10:10:58.584Z,16.63
2022-11-14T10:16:07.110Z,16.48
2022-11-14T10:21:51.238Z,23.20
2022-11-14T10:27:00.446Z,17.92
2022-11-14T10:32:10.657Z,17.30
2022-11-14T10:37:21.752Z,25.42
2022-11-14T10:42:31.167Z,21.42
2022-11-14T10:47:43.631Z,17.55
2022-11-14T10:52:46.773Z,20.45
2022-11-14T10:57:48.624Z,18.55
2022-11-14T11:02:59.198Z,18.80
2022-11-14T11:13:54.148Z,20.60
2022-11-14T11:19:15.727Z,21.05
2022-11-14T11:24:33.988Z,18.92
2022-11-14T11:29:35.693Z,18.73
2022-11-14T11:34:37.533Z,21.00
2022-11-14T11:39:50.458Z,21.27
2022-11-14T11:44:59.233Z,26.80
2022-11-14T11:50:02.262Z,21.30
2022-11-14T11:55:25.250Z,21.08
2022-11-14T12:00:27.073Z,24.15
2022-11-14T12:05:53.067Z,23.17
2022-11-14T12:10:57.053Z,23.23
2022-11-14T12:16:11.790Z,25.30
2022-11-14T12:21:26.806Z,26.13
2022-11-14T12:27:06.473Z,24.00
2022-11-14T12:32:14.265Z,25.95
2022-11-14T12:37:18.473Z,25.67
2022-11-14T12:42:21.737Z,27.35
2022-11-14T12:47:26.001Z,28.33
2022-11-14T12:52:45.869Z,29.98
2022-11-14T12:58:11.740Z,18.65
2022-11-14T13:03:35.400Z,26.48
2022-11-14T13:09:02.116Z,28.17
2022-11-14T13:14:27.458Z,29.92
2022-11-14T13:19:47.940Z,28.10
2022-11-14T13:24:58.767Z,29.60
2022-11-14T13:30:02.777Z,27.15
2022-11-14T13:35:05.598Z,27.92
2022-11-14T13:40:30.535Z,28.90
2022-11-14T13:45:41.338Z,27.88
2022-11-14T13:56:05.520Z,33.97
2022-11-14T14:01:29.642Z,29.17
2022-11-14T14:07:03.165Z,33.17
2022-11-14T14:12:17.484Z,29.30
2022-11-14T14:17:43.984Z,26.52
2022-11-14T14:23:17.614Z,31.75
2022-11-14T14:28:39.010Z,28.02
2022-11-14T14:33:46.373Z,33.13
2022-11-14T14:38:48.528Z,36.22
2022-11-14T14:43:55.466Z,29.60
2022-11-14T14:48:59.225Z,32.90
2022-11-14T14:54:01.285Z,30.10
2022-11-14T14:59:17.687Z,35.58
2022-11-14T15:04:21.202Z,29.63
2022-11-14T15:09:26.016Z,35.45
2022-11-14T15:14:31.073Z,31.30
2022-11-14T15:19:42.900Z,38.53
2022-11-14T15:24:45.040Z,38.00
2022-11-14T15:29:55.621Z,36.75
2022-11-14T15:35:25.064Z,29.73
2022-11-14T15:40:27.501Z,43.80
2022-11-14T15:45:39.549Z,39.67
2022-11-14T15:50:42.193Z,36.85
2022-11-14T15:55:43.920Z,36.45
2022-11-14T16:00:50.749Z,36.38
2022-11-14T16:05:52.626Z,38.58
2022-11-14T16:10:54.329Z,36.30
2022-11-14T16:15:56.276Z,38.58
2022-11-14T16:20:59.426Z,35.25
2022-11-14T16:26:01.149Z,38.88
2022-11-14T16:31:02.858Z,38.50
2022-11-14T16:36:04.705Z,38.33
2022-11-14T16:41:08.369Z,41.72
2022-11-14T16:46:11.322Z,35.67
2022-11-14T16:51:40.896Z,34.53
2022-11-14T16:56:34.762Z,30.42
2022-11-14T17:01:37.266Z,30.52
2022-11-14T17:06:39.185Z,31.52
2022-11-14T17:11:40.919Z,33.72
2022-11-14T17:16:42.666Z,33.38
2022-11-14T17:21:44.573Z,31.90
2022-11-14T17:26:46.581Z,30.25
2022-11-14T17:31:48.285Z,29.38
2022-11-14T17:36:50.229Z,29.38
2022-11-14T17:41:52.117Z,29.70
2022-11-14T17:46:53.878Z,25.45
2022-11-14T17:51:55.837Z,28.45
2022-11-14T17:56:59.023Z,26.95
2022-11-14T18:02:03.222Z,29.55
2022-11-14T18:07:05.135Z,29.00
2022-11-14T18:12:07.429Z,28.90
2022-11-14T18:17:13.375Z,28.08
2022-11-14T18:22:15.335Z,27.60
2022-11-14T18:27:17.208Z,28.45
2022-11-14T18:32:19.059Z,26.58
2022-11-14T18:37:22.313Z,26.58
2022-11-14T18:42:24.276Z,28.20
2022-11-14T18:47:26.054Z,29.65
2022-11-14T18:52:27.922Z,32.25
2022-11-14T18:57:29.754Z,34.95
2022-11-14T19:02:31.597Z,35.20
2022-11-14T19:07:33.489Z,31.30
2022-11-14T19:12:36.613Z,33.42
2022-11-14T19:17:38.608Z,39.38
2022-11-14T19:22:40.429Z,32.38
2022-11-14T19:27:42.316Z,36.67
2022-11-14T19:32:44.071Z,36.05
2022-11-14T19:37:45.818Z,37.38
2022-11-14T19:42:47.628Z,33.92
2022-11-14T19:47:49.384Z,34.42
2022-11-14T19:52:52.117Z,34.50
2022-11-14T19:57:53.873Z,35.15
2022-11-14T20:02:55.737Z,35.10
2022-11-14T20:07:57.524Z,35.72
2022-11-14T20:12:59.247Z,30.65
2022-11-14T20:18:01.017Z,35.05
2022-11-14T20:23:02.791Z,36.05
2022-11-14T20:28:08.055Z,35.75
2022-11-14T20:33:10.603Z,37.90
2022-11-14T20:38:12.531Z,36.78
2022-11-14T20:43:14.257Z,42.13
2022-11-14T20:48:16.082Z,46.42
2022-11-14T20:53:18.341Z,40.60
2022-11-14T20:58:21.021Z,44.85
2022-11-14T21:03:23.517Z,36.80
2022-11-14T21:08:25.435Z,40.13
2022-11-14T21:13:46.457Z,39.63
2022-11-14T21:18:48.479Z,37.03
2022-11-14T21:23:50.999Z,40.05
2022-11-14T21:28:58.477Z,37.20
2022-11-14T21:34:06.539Z,41.35
2022-11-14T21:39:08.436Z,39.95
2022-11-14T21:44:16.621Z,34.25
2022-11-14T21:49:18.650Z,44.72
2022-11-14T21:54:20.389Z,56.33
2022-11-14T21:59:26.517Z,53.50
2022-11-14T22:04:28.601Z,45.55
2022-11-14T22:09:32.991Z,42.97
2022-11-14T22:14:34.951Z,36.63
2022-11-14T22:19:36.676Z,48.67
2022-11-14T22:24:38.470Z,52.95
2022-11-14T22:29:40.208Z,39.28
2022-11-14T22:34:41.993Z,41.60
2022-11-14T22:39:43.852Z,40.00
2022-11-14T22:44:45.794Z,45.63
2022-11-14T22:49:47.592Z,41.85
2022-11-14T22:54:49.319Z,41.85
2022-11-14T22:59:51.049Z,46.13
2022-11-14T23:04:52.916Z,39.17
2022-11-14T23:09:54.670Z,36.00
2022-11-14T23:14:56.474Z,37.78
2022-11-14T23:19:58.381Z,35.92
2022-11-14T23:25:00.186Z,32.35
2022-11-14T23:30:02.145Z,32.97
2022-11-14T23:35:04.189Z,37.58
2022-11-14T23:40:06.619Z,28.77
2022-11-14T23:45:08.780Z,30.77
2022-11-14T23:50:10.641Z,30.83
2022-11-14T23:55:12.455Z,30.20
